Погода Омеленская Слободана 2 недели

Могилёвская область, Белоруссия

23 июля-05 августа
  • 23июля
    Сегодня
    +14°
    +26°
    Практически безоблачно
    ВремяПогодаТемператураВлажностьДавлениеВетер, м/сВероятность осадков
    00:00Ясно и безоблачно+17°C90 %747 мм1.8 м/с2 %
    03:00Ясно и безоблачно+15°C95 %747 мм1.7 м/с2 %
    06:00Ясно и безоблачно+15°C95 %747 мм2.3 м/с2 %
    09:00Практически безоблачно+21°C78 %748 мм3.3 м/с2 %
    12:00Практически безоблачно+24°C61 %748 мм4.5 м/с8 %
    15:00Практически безоблачно+25°C53 %747 мм5.2 м/с15 %
    18:00Ясно и безоблачно+25°C52 %747 мм4.0 м/с9 %
    21:00Ясно и безоблачно+22°C68 %748 мм1.9 м/с2 %
  • 24июля
    Среда
    +13°
    +26°
    Практически безоблачно
    ВремяПогодаТемператураВлажностьДавлениеВетер, м/сВероятность осадков
    00:00Ясно и безоблачно+17°C87 %747 мм2.1 м/с2 %
    03:00Ясно и безоблачно+15°C92 %747 мм1.6 м/с2 %
    06:00Ясно и безоблачно+15°C91 %747 мм2.1 м/с2 %
    09:00Ясно и безоблачно+21°C75 %747 мм2.2 м/с2 %
    12:00Практически безоблачно+24°C63 %747 мм2.8 м/с22 %
    15:00Практически безоблачно+24°C53 %747 мм3.3 м/с26 %
    18:00Небольшая облачность+25°C45 %746 мм3.7 м/с13 %
    21:00Ясно и безоблачно+20°C61 %746 мм1.9 м/с2 %
  • 25июля
    Четверг
    +15°
    +26°
    Небольшая облачность
    ВремяПогодаТемператураВлажностьДавлениеВетер, м/сВероятность осадков
    00:00Ясно и безоблачно+17°C62 %746 мм2.4 м/с2 %
    03:00Ясно и безоблачно+15°C68 %746 мм2.4 м/с2 %
    06:00Ясно и безоблачно+14°C75 %745 мм2.3 м/с2 %
    09:00Облачно с прояснениями+20°C59 %746 мм3.1 м/с2 %
    12:00Облачно с прояснениями+25°C39 %746 мм3.8 м/с2 %
    15:00Небольшая облачность+25°C36 %745 мм3.3 м/с2 %
    18:00Небольшая облачность+25°C36 %744 мм2.7 м/с2 %
    21:00Ясно и безоблачно+20°C59 %745 мм2.3 м/с2 %
  • 26июля
    Пятница
    +15°
    +28°
    Пасмурно, сплошная облачность
    ВремяПогодаТемператураВлажностьДавлениеВетер, м/сВероятность осадков
    00:00Практически безоблачно+17°C66 %745 мм2.8 м/с2 %
    03:00Ясно и безоблачно+16°C75 %745 мм2.0 м/с2 %
    06:00Ясно и безоблачно+16°C76 %746 мм2.5 м/с2 %
    09:00Облачно с прояснениями+21°C59 %746 мм1.9 м/с2 %
    12:00Облачно с прояснениями+26°C38 %747 мм2.2 м/с5 %
    15:00Пасмурно, сплошная облачность+27°C35 %747 мм1.8 м/с13 %
    18:00Облачно с прояснениями+27°C35 %747 мм1.3 м/с25 %
    21:00Облачно с прояснениями+22°C56 %748 мм2.8 м/с14 %
  • 27июля
    Суббота
    +16°
    +29°
    Небольшая облачность
    ВремяПогодаТемператураВлажностьДавлениеВетер, м/сВероятность осадков
    00:00Облачно с прояснениями+18°C76 %749 мм1.8 м/с3 %
    03:00Ясно и безоблачно+15°C88 %750 мм1.9 м/с4 %
    06:00Ясно и безоблачно+16°C93 %750 мм1.2 м/с8 %
    09:00Ясно и безоблачно+22°C66 %751 мм0.6 м/с6 %
    12:00Практически безоблачно+27°C43 %752 мм0.9 м/с10 %
    15:00Небольшая облачность+28°C40 %752 мм0.6 м/с14 %
    18:00Облачно с прояснениями+28°C40 %751 мм0.4 м/с26 %
    21:00Ясно и безоблачно+23°C56 %752 мм2.0 м/с9 %
Мы используем cookies
Соглашаюсь